sensor_id;sensor_type;location;lat;lon;timestamp;pressure;altitude;pressure_sealevel;temperature;humidity
20987;BME280;10652;50.306;8.570;2023-10-08T00:01:03;98625.41;;;15.53;83.24
20987;BME280;10652;50.306;8.570;2023-10-08T00:05:06;98624.44;;;15.54;83.04
20987;BME280;10652;50.306;8.570;2023-10-08T00:09:08;98610.25;;;15.55;82.75
20987;BME280;10652;50.306;8.570;2023-10-08T00:13:12;98616.34;;;15.57;82.28
20987;BME280;10652;50.306;8.570;2023-10-08T00:17:16;98641.03;;;15.58;81.71
20987;BME280;10652;50.306;8.570;2023-10-08T00:21:21;98623.19;;;15.61;80.54
20987;BME280;10652;50.306;8.570;2023-10-08T00:25:31;98624.91;;;15.62;79.71
20987;BME280;10652;50.306;8.570;2023-10-08T00:29:35;98618.63;;;15.63;79.33
20987;BME280;10652;50.306;8.570;2023-10-08T00:33:42;98616.69;;;15.67;78.09
20987;BME280;10652;50.306;8.570;2023-10-08T00:37:46;98620.16;;;15.67;77.60
20987;BME280;10652;50.306;8.570;2023-10-08T00:41:51;98611.28;;;15.68;76.85
20987;BME280;10652;50.306;8.570;2023-10-08T00:46:02;98594.06;;;15.61;76.50
20987;BME280;10652;50.306;8.570;2023-10-08T00:50:20;98610.25;;;15.55;76.27
20987;BME280;10652;50.306;8.570;2023-10-08T00:54:23;98600.00;;;15.49;76.37
20987;BME280;10652;50.306;8.570;2023-10-08T00:58:27;98609.94;;;15.46;76.73
20987;BME280;10652;50.306;8.570;2023-10-08T01:02:30;98618.25;;;15.40;76.62
20987;BME280;10652;50.306;8.570;2023-10-08T01:06:47;98603.97;;;15.42;78.71
20987;BME280;10652;50.306;8.570;2023-10-08T01:10:54;98618.06;;;15.43;77.36
20987;BME280;10652;50.306;8.570;2023-10-08T01:15:03;98615.69;;;15.38;77.07
20987;BME280;10652;50.306;8.570;2023-10-08T01:19:25;98624.06;;;15.30;77.51
20987;BME280;10652;50.306;8.570;2023-10-08T01:23:29;98627.56;;;15.31;77.68
20987;BME280;10652;50.306;8.570;2023-10-08T01:27:33;98636.28;;;15.33;77.62
20987;BME280;10652;50.306;8.570;2023-10-08T01:31:39;98636.47;;;15.30;77.91
20987;BME280;10652;50.306;8.570;2023-10-08T01:35:42;98638.31;;;15.28;78.04
20987;BME280;10652;50.306;8.570;2023-10-08T01:39:45;98644.91;;;15.21;78.67
20987;BME280;10652;50.306;8.570;2023-10-08T01:43:48;98635.59;;;15.14;79.07
20987;BME280;10652;50.306;8.570;2023-10-08T01:47:52;98635.09;;;15.07;79.26
20987;BME280;10652;50.306;8.570;2023-10-08T01:51:57;98643.44;;;15.00;79.16
20987;BME280;10652;50.306;8.570;2023-10-08T01:56:00;98661.38;;;14.95;79.74
20987;BME280;10652;50.306;8.570;2023-10-08T02:00:05;98659.75;;;14.92;79.94
20987;BME280;10652;50.306;8.570;2023-10-08T02:04:12;98648.56;;;14.87;80.65
20987;BME280;10652;50.306;8.570;2023-10-08T02:08:15;98633.00;;;14.81;81.08
20987;BME280;10652;50.306;8.570;2023-10-08T02:12:20;98622.69;;;14.76;81.26
20987;BME280;10652;50.306;8.570;2023-10-08T02:16:23;98633.69;;;14.69;82.24
20987;BME280;10652;50.306;8.570;2023-10-08T02:20:25;98626.00;;;14.64;82.79
20987;BME280;10652;50.306;8.570;2023-10-08T02:24:30;98625.94;;;14.66;82.81
20987;BME280;10652;50.306;8.570;2023-10-08T02:28:32;98606.56;;;14.65;83.23
20987;BME280;10652;50.306;8.570;2023-10-08T02:32:35;98606.25;;;14.71;82.81
20987;BME280;10652;50.306;8.570;2023-10-08T02:36:40;98607.78;;;14.75;82.80
20987;BME280;10652;50.306;8.570;2023-10-08T02:40:45;98612.88;;;14.78;82.75
20987;BME280;10652;50.306;8.570;2023-10-08T02:44:50;98638.06;;;14.85;82.23
20987;BME280;10652;50.306;8.570;2023-10-08T02:48:53;98629.97;;;14.88;81.65
20987;BME280;10652;50.306;8.570;2023-10-08T02:52:55;98630.66;;;14.92;81.10
20987;BME280;10652;50.306;8.570;2023-10-08T02:57:04;98625.28;;;14.94;80.93
20987;BME280;10652;50.306;8.570;2023-10-08T03:01:16;98635.69;;;14.97;80.66
20987;BME280;10652;50.306;8.570;2023-10-08T03:05:18;98655.06;;;14.97;80.19
20987;BME280;10652;50.306;8.570;2023-10-08T03:09:22;98666.50;;;14.98;80.57
20987;BME280;10652;50.306;8.570;2023-10-08T03:13:33;98666.50;;;14.98;80.71
20987;BME280;10652;50.306;8.570;2023-10-08T03:17:41;98661.72;;;14.88;80.92
20987;BME280;10652;50.306;8.570;2023-10-08T03:21:51;98667.50;;;14.79;81.20
20987;BME280;10652;50.306;8.570;2023-10-08T03:25:54;98688.00;;;14.76;81.44
20987;BME280;10652;50.306;8.570;2023-10-08T03:30:05;98685.59;;;14.71;81.24
20987;BME280;10652;50.306;8.570;2023-10-08T03:34:08;98684.88;;;14.68;81.37
20987;BME280;10652;50.306;8.570;2023-10-08T03:38:14;98699.88;;;14.67;81.49
20987;BME280;10652;50.306;8.570;2023-10-08T03:42:35;98689.22;;;14.69;81.64
20987;BME280;10652;50.306;8.570;2023-10-08T03:46:42;98693.66;;;14.68;82.00
20987;BME280;10652;50.306;8.570;2023-10-08T03:50:45;98698.03;;;14.69;81.92
20987;BME280;10652;50.306;8.570;2023-10-08T03:54:47;98692.56;;;14.72;82.10
20987;BME280;10652;50.306;8.570;2023-10-08T03:59:06;98693.41;;;14.73;82.08
20987;BME280;10652;50.306;8.570;2023-10-08T04:03:15;98685.59;;;14.71;82.47
20987;BME280;10652;50.306;8.570;2023-10-08T04:07:26;98691.94;;;14.67;82.63
20987;BME280;10652;50.306;8.570;2023-10-08T04:12:00;98662.28;;;14.62;83.04
20987;BME280;10652;50.306;8.570;2023-10-08T04:16:12;98659.91;;;14.56;83.31
20987;BME280;10652;50.306;8.570;2023-10-08T04:20:20;98669.34;;;14.44;83.81
20987;BME280;10652;50.306;8.570;2023-10-08T04:24:41;98668.22;;;14.33;84.56
20987;BME280;10652;50.306;8.570;2023-10-08T04:28:45;98663.56;;;14.21;85.21
20987;BME280;10652;50.306;8.570;2023-10-08T04:32:50;98672.66;;;14.15;85.87
20987;BME280;10652;50.306;8.570;2023-10-08T04:36:55;98679.72;;;14.15;85.91
20987;BME280;10652;50.306;8.570;2023-10-08T04:41:02;98683.16;;;14.17;86.04
20987;BME280;10652;50.306;8.570;2023-10-08T04:45:11;98688.28;;;14.20;85.78
20987;BME280;10652;50.306;8.570;2023-10-08T04:49:16;98685.56;;;14.21;85.64
20987;BME280;10652;50.306;8.570;2023-10-08T04:53:32;98677.72;;;14.20;85.59
20987;BME280;10652;50.306;8.570;2023-10-08T04:57:39;98662.72;;;14.20;85.60
20987;BME280;10652;50.306;8.570;2023-10-08T05:01:44;98659.91;;;14.23;86.22
20987;BME280;10652;50.306;8.570;2023-10-08T05:05:50;98688.81;;;14.26;86.26
20987;BME280;10652;50.306;8.570;2023-10-08T05:10:12;98666.66;;;14.29;86.10
20987;BME280;10652;50.306;8.570;2023-10-08T05:14:21;98674.53;;;14.30;85.95
20987;BME280;10652;50.306;8.570;2023-10-08T05:18:40;98678.78;;;14.33;85.77
20987;BME280;10652;50.306;8.570;2023-10-08T05:23:18;98691.94;;;14.34;85.53
20987;BME280;10652;50.306;8.570;2023-10-08T05:27:27;98676.94;;;14.35;85.49
20987;BME280;10652;50.306;8.570;2023-10-08T05:31:48;98664.47;;;14.37;85.51
20987;BME280;10652;50.306;8.570;2023-10-08T05:35:55;98654.75;;;14.37;86.37
20987;BME280;10652;50.306;8.570;2023-10-08T05:40:11;98649.84;;;14.47;86.83
20987;BME280;10652;50.306;8.570;2023-10-08T05:44:23;98646.16;;;14.50;85.66
20987;BME280;10652;50.306;8.570;2023-10-08T05:48:25;98664.78;;;14.48;85.23
20987;BME280;10652;50.306;8.570;2023-10-08T05:52:30;98681.38;;;14.50;84.71
20987;BME280;10652;50.306;8.570;2023-10-08T05:56:53;98704.44;;;14.48;84.50
20987;BME280;10652;50.306;8.570;2023-10-08T06:01:14;98708.75;;;14.49;84.61
20987;BME280;10652;50.306;8.570;2023-10-08T06:05:36;98727.97;;;14.53;84.20
20987;BME280;10652;50.306;8.570;2023-10-08T06:09:45;98709.38;;;14.54;83.76
20987;BME280;10652;50.306;8.570;2023-10-08T06:14:04;98726.69;;;14.61;83.77
20987;BME280;10652;50.306;8.570;2023-10-08T06:18:16;98733.50;;;14.65;84.28
20987;BME280;10652;50.306;8.570;2023-10-08T06:22:20;98738.63;;;14.68;84.00
20987;BME280;10652;50.306;8.570;2023-10-08T06:26:28;98744.94;;;14.66;84.01
20987;BME280;10652;50.306;8.570;2023-10-08T06:30:36;98740.34;;;14.69;83.78
20987;BME280;10652;50.306;8.570;2023-10-08T06:34:38;98722.63;;;14.71;83.80
20987;BME280;10652;50.306;8.570;2023-10-08T06:38:43;98729.44;;;14.75;83.75
20987;BME280;10652;50.306;8.570;2023-10-08T06:42:46;98738.81;;;14.81;83.74
20987;BME280;10652;50.306;8.570;2023-10-08T06:46:48;98756.78;;;14.92;83.72
20987;BME280;10652;50.306;8.570;2023-10-08T06:50:52;98765.88;;;15.03;83.22
20987;BME280;10652;50.306;8.570;2023-10-08T06:55:09;98775.56;;;15.20;83.04
20987;BME280;10652;50.306;8.570;2023-10-08T06:59:15;98787.09;;;15.34;82.33
20987;BME280;10652;50.306;8.570;2023-10-08T07:03:19;98801.63;;;15.43;80.92
20987;BME280;10652;50.306;8.570;2023-10-08T07:07:22;98805.88;;;15.46;80.79
20987;BME280;10652;50.306;8.570;2023-10-08T07:11:25;98804.72;;;15.51;80.62
20987;BME280;10652;50.306;8.570;2023-10-08T07:15:31;98814.97;;;15.57;80.15
20987;BME280;10652;50.306;8.570;2023-10-08T07:19:34;98814.50;;;15.66;79.97
20987;BME280;10652;50.306;8.570;2023-10-08T07:23:43;98809.88;;;15.86;80.04
20987;BME280;10652;50.306;8.570;2023-10-08T07:28:01;98778.72;;;16.05;78.88
20987;BME280;10652;50.306;8.570;2023-10-08T07:32:14;98792.09;;;16.03;77.46
20987;BME280;10652;50.306;8.570;2023-10-08T07:36:20;98771.91;;;16.01;80.38
20987;BME280;10652;50.306;8.570;2023-10-08T07:40:22;98757.00;;;16.14;80.70
20987;BME280;10652;50.306;8.570;2023-10-08T07:44:29;98740.91;;;16.17;79.85
20987;BME280;10652;50.306;8.570;2023-10-08T07:48:37;98774.34;;;16.04;77.57
20987;BME280;10652;50.306;8.570;2023-10-08T07:52:45;98773.09;;;15.95;78.53
20987;BME280;10652;50.306;8.570;2023-10-08T07:56:48;98769.25;;;16.01;79.26
20987;BME280;10652;50.306;8.570;2023-10-08T08:00:50;98784.53;;;16.11;79.13
20987;BME280;10652;50.306;8.570;2023-10-08T08:04:58;98774.41;;;16.18;78.91
20987;BME280;10652;50.306;8.570;2023-10-08T08:09:00;98773.88;;;16.27;78.67
20987;BME280;10652;50.306;8.570;2023-10-08T08:13:04;98778.84;;;16.33;78.61
20987;BME280;10652;50.306;8.570;2023-10-08T08:17:08;98784.88;;;16.35;78.67
20987;BME280;10652;50.306;8.570;2023-10-08T08:21:16;98798.94;;;16.37;78.47
20987;BME280;10652;50.306;8.570;2023-10-08T08:25:18;98806.53;;;16.43;78.68
20987;BME280;10652;50.306;8.570;2023-10-08T08:29:36;98814.91;;;16.51;77.89
20987;BME280;10652;50.306;8.570;2023-10-08T08:33:47;98814.84;;;16.67;77.81
20987;BME280;10652;50.306;8.570;2023-10-08T08:37:55;98836.69;;;16.86;76.10
20987;BME280;10652;50.306;8.570;2023-10-08T08:41:59;98851.22;;;16.95;74.11
20987;BME280;10652;50.306;8.570;2023-10-08T08:46:03;98844.03;;;16.97;74.23
20987;BME280;10652;50.306;8.570;2023-10-08T08:50:09;98847.03;;;16.91;73.76
20987;BME280;10652;50.306;8.570;2023-10-08T08:54:11;98849.88;;;16.88;74.70
20987;BME280;10652;50.306;8.570;2023-10-08T08:58:16;98873.69;;;16.89;74.26
20987;BME280;10652;50.306;8.570;2023-10-08T09:02:19;98869.00;;;16.79;74.00
20987;BME280;10652;50.306;8.570;2023-10-08T09:06:22;98878.50;;;16.83;74.34
20987;BME280;10652;50.306;8.570;2023-10-08T09:10:25;98862.63;;;16.97;73.97
20987;BME280;10652;50.306;8.570;2023-10-08T09:14:31;98863.38;;;17.13;73.71
20987;BME280;10652;50.306;8.570;2023-10-08T09:18:34;98854.28;;;17.31;73.38
20987;BME280;10652;50.306;8.570;2023-10-08T09:22:37;98848.00;;;17.48;72.64
20987;BME280;10652;50.306;8.570;2023-10-08T09:26:40;98853.38;;;17.46;71.76
20987;BME280;10652;50.306;8.570;2023-10-08T09:30:43;98859.03;;;17.40;71.51
20987;BME280;10652;50.306;8.570;2023-10-08T09:34:48;98860.22;;;17.50;72.46
20987;BME280;10652;50.306;8.570;2023-10-08T09:38:52;98840.66;;;17.66;71.28
20987;BME280;10652;50.306;8.570;2023-10-08T09:42:54;98835.72;;;17.74;70.67
20987;BME280;10652;50.306;8.570;2023-10-08T09:47:08;98853.81;;;17.81;71.30
20987;BME280;10652;50.306;8.570;2023-10-08T09:51:13;98840.22;;;17.86;70.09
20987;BME280;10652;50.306;8.570;2023-10-08T09:55:17;98860.66;;;17.85;70.18
20987;BME280;10652;50.306;8.570;2023-10-08T09:59:20;98857.78;;;18.03;70.62
20987;BME280;10652;50.306;8.570;2023-10-08T10:03:24;98846.59;;;18.38;70.24
20987;BME280;10652;50.306;8.570;2023-10-08T10:07:29;98854.22;;;18.70;68.27
20987;BME280;10652;50.306;8.570;2023-10-08T10:11:32;98878.97;;;18.84;66.39
20987;BME280;10652;50.306;8.570;2023-10-08T10:15:36;98877.91;;;19.12;67.29
20987;BME280;10652;50.306;8.570;2023-10-08T10:19:38;98854.94;;;19.37;66.32
20987;BME280;10652;50.306;8.570;2023-10-08T10:23:46;98871.91;;;19.48;65.77
20987;BME280;10652;50.306;8.570;2023-10-08T10:31:57;98876.44;;;19.84;64.34
20987;BME280;10652;50.306;8.570;2023-10-08T10:36:01;98880.84;;;20.22;63.92
20987;BME280;10652;50.306;8.570;2023-10-08T10:40:04;98893.59;;;20.42;62.27
20987;BME280;10652;50.306;8.570;2023-10-08T10:44:12;98896.72;;;20.59;62.31
20987;BME280;10652;50.306;8.570;2023-10-08T10:48:15;98904.81;;;20.71;62.65
20987;BME280;10652;50.306;8.570;2023-10-08T10:52:22;98902.16;;;20.58;60.88
20987;BME280;10652;50.306;8.570;2023-10-08T10:56:36;98902.72;;;20.50;62.55
20987;BME280;10652;50.306;8.570;2023-10-08T11:00:44;98909.16;;;20.48;62.71
20987;BME280;10652;50.306;8.570;2023-10-08T11:04:47;98913.38;;;20.27;63.35
20987;BME280;10652;50.306;8.570;2023-10-08T11:08:50;98912.94;;;19.96;63.36
20987;BME280;10652;50.306;8.570;2023-10-08T11:12:54;98913.78;;;19.84;64.17
20987;BME280;10652;50.306;8.570;2023-10-08T11:17:09;98898.31;;;19.89;64.86
20987;BME280;10652;50.306;8.570;2023-10-08T11:21:13;98900.94;;;20.14;63.65
20987;BME280;10652;50.306;8.570;2023-10-08T11:25:23;98889.72;;;20.46;63.88
20987;BME280;10652;50.306;8.570;2023-10-08T11:29:29;98874.25;;;20.75;62.84
20987;BME280;10652;50.306;8.570;2023-10-08T11:33:33;98879.16;;;20.68;62.30
20987;BME280;10652;50.306;8.570;2023-10-08T11:37:37;98878.97;;;20.58;62.24
20987;BME280;10652;50.306;8.570;2023-10-08T11:41:40;98881.94;;;20.43;63.06
20987;BME280;10652;50.306;8.570;2023-10-08T11:45:57;98885.31;;;20.34;64.01
20987;BME280;10652;50.306;8.570;2023-10-08T11:49:59;98877.00;;;20.26;64.19
20987;BME280;10652;50.306;8.570;2023-10-08T11:54:21;98862.69;;;20.27;64.68
20987;BME280;10652;50.306;8.570;2023-10-08T11:58:25;98854.63;;;20.15;64.12
20987;BME280;10652;50.306;8.570;2023-10-08T12:02:39;98864.16;;;20.07;64.70
20987;BME280;10652;50.306;8.570;2023-10-08T12:06:44;98860.00;;;20.03;64.36
20987;BME280;10652;50.306;8.570;2023-10-08T12:10:49;98861.16;;;19.99;64.57
20987;BME280;10652;50.306;8.570;2023-10-08T12:14:56;98871.06;;;20.09;65.18
20987;BME280;10652;50.306;8.570;2023-10-08T12:18:58;98873.25;;;20.28;65.20
20987;BME280;10652;50.306;8.570;2023-10-08T12:23:01;98881.38;;;20.50;63.87
20987;BME280;10652;50.306;8.570;2023-10-08T12:27:03;98879.78;;;20.72;63.39
20987;BME280;10652;50.306;8.570;2023-10-08T12:31:05;98869.97;;;20.72;62.84
20987;BME280;10652;50.306;8.570;2023-10-08T12:35:10;98870.16;;;20.69;63.08
20987;BME280;10652;50.306;8.570;2023-10-08T12:39:14;98865.63;;;20.82;63.03
20987;BME280;10652;50.306;8.570;2023-10-08T12:43:17;98867.66;;;21.02;62.23
20987;BME280;10652;50.306;8.570;2023-10-08T12:47:21;98862.63;;;20.87;62.08
20987;BME280;10652;50.306;8.570;2023-10-08T12:51:24;98864.03;;;20.08;64.65
20987;BME280;10652;50.306;8.570;2023-10-08T12:55:27;98856.00;;;19.59;67.25
20987;BME280;10652;50.306;8.570;2023-10-08T12:59:32;98869.66;;;19.42;67.82
20987;BME280;10652;50.306;8.570;2023-10-08T13:03:36;98853.25;;;19.23;68.90
20987;BME280;10652;50.306;8.570;2023-10-08T13:07:43;98851.84;;;19.17;69.56
20987;BME280;10652;50.306;8.570;2023-10-08T13:11:47;98857.63;;;19.37;69.85
20987;BME280;10652;50.306;8.570;2023-10-08T13:15:49;98841.22;;;19.43;69.20
20987;BME280;10652;50.306;8.570;2023-10-08T13:19:51;98847.69;;;19.51;70.23
20987;BME280;10652;50.306;8.570;2023-10-08T13:23:55;98847.69;;;19.64;69.24
20987;BME280;10652;50.306;8.570;2023-10-08T13:28:02;98850.13;;;19.67;69.77
20987;BME280;10652;50.306;8.570;2023-10-08T13:32:04;98848.75;;;19.49;68.61
20987;BME280;10652;50.306;8.570;2023-10-08T13:36:06;98847.91;;;19.36;70.09
20987;BME280;10652;50.306;8.570;2023-10-08T13:40:19;98843.44;;;19.23;70.92
20987;BME280;10652;50.306;8.570;2023-10-08T13:44:22;98846.66;;;19.16;71.63
20987;BME280;10652;50.306;8.570;2023-10-08T13:48:32;98823.81;;;19.12;71.11
20987;BME280;10652;50.306;8.570;2023-10-08T13:52:35;98820.41;;;19.10;72.53
20987;BME280;10652;50.306;8.570;2023-10-08T13:56:40;98816.34;;;19.04;72.08
20987;BME280;10652;50.306;8.570;2023-10-08T14:00:50;98826.13;;;18.78;71.58
20987;BME280;10652;50.306;8.570;2023-10-08T14:04:54;98828.38;;;18.45;73.38
20987;BME280;10652;50.306;8.570;2023-10-08T14:08:59;98831.50;;;18.25;73.99
20987;BME280;10652;50.306;8.570;2023-10-08T14:13:02;98831.00;;;18.06;74.96
20987;BME280;10652;50.306;8.570;2023-10-08T14:17:05;98822.97;;;17.93;76.08
20987;BME280;10652;50.306;8.570;2023-10-08T14:21:10;98827.91;;;17.85;76.43
20987;BME280;10652;50.306;8.570;2023-10-08T14:25:12;98832.22;;;17.59;77.35
20987;BME280;10652;50.306;8.570;2023-10-08T14:29:16;98828.50;;;17.33;78.77
20987;BME280;10652;50.306;8.570;2023-10-08T14:33:20;98822.03;;;17.09;79.33
20987;BME280;10652;50.306;8.570;2023-10-08T14:37:26;98806.56;;;16.87;81.08
20987;BME280;10652;50.306;8.570;2023-10-08T14:41:50;98809.00;;;16.76;82.98
20987;BME280;10652;50.306;8.570;2023-10-08T14:46:11;98788.06;;;16.86;83.38
20987;BME280;10652;50.306;8.570;2023-10-08T14:50:13;98792.25;;;16.76;83.53
20987;BME280;10652;50.306;8.570;2023-10-08T14:54:19;98801.91;;;16.77;83.89
20987;BME280;10652;50.306;8.570;2023-10-08T14:58:22;98800.22;;;16.90;83.17
20987;BME280;10652;50.306;8.570;2023-10-08T15:02:26;98804.50;;;16.92;82.82
20987;BME280;10652;50.306;8.570;2023-10-08T15:06:31;98800.03;;;16.93;82.07
20987;BME280;10652;50.306;8.570;2023-10-08T15:10:34;98781.91;;;16.85;81.67
20987;BME280;10652;50.306;8.570;2023-10-08T15:14:36;98768.78;;;16.54;83.44
20987;BME280;10652;50.306;8.570;2023-10-08T15:18:44;98787.84;;;16.45;85.35
20987;BME280;10652;50.306;8.570;2023-10-08T15:22:47;98797.88;;;16.55;86.73
20987;BME280;10652;50.306;8.570;2023-10-08T15:26:51;98791.44;;;16.59;86.24
20987;BME280;10652;50.306;8.570;2023-10-08T15:30:54;98800.38;;;16.43;87.49
20987;BME280;10652;50.306;8.570;2023-10-08T15:34:56;98789.63;;;16.30;86.66
20987;BME280;10652;50.306;8.570;2023-10-08T15:38:58;98798.56;;;16.13;87.10
20987;BME280;10652;50.306;8.570;2023-10-08T15:43:01;98784.53;;;16.11;88.67
20987;BME280;10652;50.306;8.570;2023-10-08T15:47:03;98774.06;;;16.24;88.40
20987;BME280;10652;50.306;8.570;2023-10-08T15:51:05;98795.47;;;16.21;88.92
20987;BME280;10652;50.306;8.570;2023-10-08T15:55:08;98805.72;;;16.27;88.27
20987;BME280;10652;50.306;8.570;2023-10-08T15:59:10;98806.16;;;16.19;86.98
20987;BME280;10652;50.306;8.570;2023-10-08T16:03:13;98822.34;;;15.99;88.70
20987;BME280;10652;50.306;8.570;2023-10-08T16:07:15;98824.75;;;15.88;87.98
20987;BME280;10652;50.306;8.570;2023-10-08T16:11:18;98818.63;;;15.55;89.47
20987;BME280;10652;50.306;8.570;2023-10-08T16:15:21;98814.44;;;15.35;91.29
20987;BME280;10652;50.306;8.570;2023-10-08T16:19:24;98809.66;;;15.42;92.23
20987;BME280;10652;50.306;8.570;2023-10-08T16:23:28;98812.38;;;15.40;91.28
20987;BME280;10652;50.306;8.570;2023-10-08T16:27:31;98810.06;;;15.34;91.20
20987;BME280;10652;50.306;8.570;2023-10-08T16:31:39;98810.72;;;15.22;92.33
20987;BME280;10652;50.306;8.570;2023-10-08T16:35:44;98829.78;;;15.28;93.87
20987;BME280;10652;50.306;8.570;2023-10-08T16:39:48;98816.47;;;15.30;93.04
20987;BME280;10652;50.306;8.570;2023-10-08T16:43:52;98794.84;;;15.22;92.59
20987;BME280;10652;50.306;8.570;2023-10-08T16:47:54;98775.38;;;15.23;93.65
20987;BME280;10652;50.306;8.570;2023-10-08T16:51:59;98774.25;;;15.27;92.72
20987;BME280;10652;50.306;8.570;2023-10-08T16:56:02;98766.06;;;15.16;93.20
20987;BME280;10652;50.306;8.570;2023-10-08T17:00:04;98755.56;;;15.14;93.50
20987;BME280;10652;50.306;8.570;2023-10-08T17:04:13;98769.97;;;15.09;93.65
20987;BME280;10652;50.306;8.570;2023-10-08T17:08:16;98777.19;;;14.89;93.95
20987;BME280;10652;50.306;8.570;2023-10-08T17:12:20;98770.66;;;14.79;95.73
20987;BME280;10652;50.306;8.570;2023-10-08T17:16:23;98787.31;;;14.64;95.66
20987;BME280;10652;50.306;8.570;2023-10-08T17:20:25;98785.53;;;14.48;97.20
20987;BME280;10652;50.306;8.570;2023-10-08T17:24:28;98781.06;;;14.31;97.27
20987;BME280;10652;50.306;8.570;2023-10-08T17:28:30;98781.84;;;13.98;99.46
20987;BME280;10652;50.306;8.570;2023-10-08T17:32:32;98782.91;;;13.94;100.00
20987;BME280;10652;50.306;8.570;2023-10-08T17:36:37;98782.78;;;13.97;100.00
20987;BME280;10652;50.306;8.570;2023-10-08T17:40:39;98781.50;;;13.87;100.00
20987;BME280;10652;50.306;8.570;2023-10-08T17:44:42;98795.81;;;13.65;100.00
20987;BME280;10652;50.306;8.570;2023-10-08T17:48:44;98797.34;;;13.50;100.00
20987;BME280;10652;50.306;8.570;2023-10-08T17:52:47;98786.72;;;13.33;100.00
20987;BME280;10652;50.306;8.570;2023-10-08T17:56:50;98780.50;;;13.15;100.00
20987;BME280;10652;50.306;8.570;2023-10-08T18:00:53;98777.00;;;13.14;100.00
20987;BME280;10652;50.306;8.570;2023-10-08T18:04:55;98776.81;;;13.19;100.00
20987;BME280;10652;50.306;8.570;2023-10-08T18:08:58;98771.09;;;13.09;100.00
20987;BME280;10652;50.306;8.570;2023-10-08T18:13:02;98762.47;;;13.06;100.00
20987;BME280;10652;50.306;8.570;2023-10-08T18:17:05;98759.78;;;13.07;100.00
20987;BME280;10652;50.306;8.570;2023-10-08T18:21:08;98773.03;;;13.06;100.00
20987;BME280;10652;50.306;8.570;2023-10-08T18:25:18;98768.38;;;12.92;100.00
20987;BME280;10652;50.306;8.570;2023-10-08T18:29:20;98763.34;;;12.86;100.00
20987;BME280;10652;50.306;8.570;2023-10-08T18:33:22;98752.69;;;12.89;100.00
20987;BME280;10652;50.306;8.570;2023-10-08T18:37:24;98754.25;;;12.93;100.00
20987;BME280;10652;50.306;8.570;2023-10-08T18:41:27;98748.56;;;13.02;100.00
20987;BME280;10652;50.306;8.570;2023-10-08T18:45:29;98755.97;;;13.13;100.00
20987;BME280;10652;50.306;8.570;2023-10-08T18:49:32;98752.06;;;13.22;100.00
20987;BME280;10652;50.306;8.570;2023-10-08T18:53:34;98745.00;;;13.22;100.00
20987;BME280;10652;50.306;8.570;2023-10-08T18:57:36;98741.66;;;13.19;100.00
20987;BME280;10652;50.306;8.570;2023-10-08T19:01:43;98730.38;;;13.15;100.00
20987;BME280;10652;50.306;8.570;2023-10-08T19:05:46;98729.03;;;13.06;100.00
20987;BME280;10652;50.306;8.570;2023-10-08T19:09:48;98728.44;;;13.00;100.00
20987;BME280;10652;50.306;8.570;2023-10-08T19:13:51;98723.25;;;12.98;100.00
20987;BME280;10652;50.306;8.570;2023-10-08T19:17:53;98721.31;;;12.83;100.00
20987;BME280;10652;50.306;8.570;2023-10-08T19:21:56;98715.84;;;12.67;100.00
20987;BME280;10652;50.306;8.570;2023-10-08T19:25:59;98715.19;;;12.44;100.00
20987;BME280;10652;50.306;8.570;2023-10-08T19:30:02;98710.59;;;12.27;100.00
20987;BME280;10652;50.306;8.570;2023-10-08T19:34:08;98707.69;;;12.13;100.00
20987;BME280;10652;50.306;8.570;2023-10-08T19:38:13;98704.69;;;12.02;100.00
20987;BME280;10652;50.306;8.570;2023-10-08T19:42:15;98707.75;;;11.91;100.00
20987;BME280;10652;50.306;8.570;2023-10-08T19:46:17;98701.72;;;11.89;100.00
20987;BME280;10652;50.306;8.570;2023-10-08T19:50:25;98693.94;;;11.86;100.00
20987;BME280;10652;50.306;8.570;2023-10-08T19:54:28;98697.50;;;11.85;100.00
20987;BME280;10652;50.306;8.570;2023-10-08T19:58:32;98697.06;;;11.74;100.00
20987;BME280;10652;50.306;8.570;2023-10-08T20:02:36;98693.09;;;11.64;100.00
20987;BME280;10652;50.306;8.570;2023-10-08T20:06:39;98695.72;;;11.64;100.00
20987;BME280;10652;50.306;8.570;2023-10-08T20:10:42;98703.53;;;11.67;100.00
20987;BME280;10652;50.306;8.570;2023-10-08T20:14:46;98697.69;;;11.59;100.00
20987;BME280;10652;50.306;8.570;2023-10-08T20:18:53;98698.06;;;11.50;100.00
20987;BME280;10652;50.306;8.570;2023-10-08T20:22:56;98694.56;;;11.49;100.00
20987;BME280;10652;50.306;8.570;2023-10-08T20:26:59;98691.03;;;11.50;100.00
20987;BME280;10652;50.306;8.570;2023-10-08T20:31:01;98695.34;;;11.53;100.00
20987;BME280;10652;50.306;8.570;2023-10-08T20:35:04;98693.38;;;11.58;100.00
20987;BME280;10652;50.306;8.570;2023-10-08T20:39:07;98688.47;;;11.70;100.00
20987;BME280;10652;50.306;8.570;2023-10-08T20:43:13;98685.50;;;11.78;100.00
20987;BME280;10652;50.306;8.570;2023-10-08T20:47:17;98676.44;;;11.85;100.00
20987;BME280;10652;50.306;8.570;2023-10-08T20:51:20;98684.78;;;11.95;100.00
20987;BME280;10652;50.306;8.570;2023-10-08T20:55:24;98681.19;;;11.97;100.00
20987;BME280;10652;50.306;8.570;2023-10-08T20:59:26;98674.84;;;12.01;100.00
20987;BME280;10652;50.306;8.570;2023-10-08T21:03:28;98669.78;;;11.97;100.00
20987;BME280;10652;50.306;8.570;2023-10-08T21:07:31;98660.88;;;11.99;100.00
20987;BME280;10652;50.306;8.570;2023-10-08T21:11:35;98658.34;;;11.98;100.00
20987;BME280;10652;50.306;8.570;2023-10-08T21:15:38;98654.19;;;11.92;100.00
20987;BME280;10652;50.306;8.570;2023-10-08T21:19:40;98656.97;;;11.89;100.00
20987;BME280;10652;50.306;8.570;2023-10-08T21:23:42;98644.72;;;11.88;100.00
20987;BME280;10652;50.306;8.570;2023-10-08T21:27:50;98627.91;;;11.91;100.00
20987;BME280;10652;50.306;8.570;2023-10-08T21:31:52;98630.94;;;11.81;100.00
20987;BME280;10652;50.306;8.570;2023-10-08T21:35:54;98619.03;;;11.73;100.00
20987;BME280;10652;50.306;8.570;2023-10-08T21:39:56;98615.22;;;11.60;100.00